createdAt,value
2017-02-26T13:55:17.787Z,73.73
2017-02-26T13:56:26.693Z,74.02
2017-02-26T13:57:35.581Z,73.93
2017-02-26T13:58:44.455Z,74.12
2017-02-26T13:59:53.349Z,73.54
2017-02-26T14:01:02.235Z,73.63
2017-02-26T14:02:11.262Z,73.35
2017-02-26T14:03:20.153Z,73.73
2017-02-26T14:04:29.064Z,73.63
2017-02-26T14:05:37.969Z,74.69
2017-02-26T14:06:46.856Z,74.51
2017-02-26T14:07:55.730Z,74.54
2017-02-26T14:09:04.630Z,74.06
2017-02-26T14:10:13.541Z,75.41
2017-02-26T14:11:22.428Z,75.12
2017-02-26T14:12:31.314Z,74.73
2017-02-26T14:13:40.230Z,74.54
2017-02-26T14:14:49.124Z,75.02
2017-02-26T14:15:58.046Z,74.54
2017-02-26T14:17:06.932Z,74.54
2017-02-26T14:18:15.837Z,74.54
2017-02-26T14:19:24.717Z,74.35
2017-02-26T14:20:33.634Z,74.35
2017-02-26T14:21:42.520Z,74.35
2017-02-26T14:22:51.426Z,73.67
2017-02-26T14:24:00.312Z,73.67
2017-02-26T14:25:09.199Z,73.48
2017-02-26T14:26:18.087Z,74.06
2017-02-26T14:27:27.005Z,73.77
2017-02-26T14:28:35.906Z,74.25
2017-02-26T14:29:44.820Z,74.06
2017-02-26T14:30:53.717Z,73.77
2017-02-26T14:32:02.625Z,74.06
2017-02-26T14:33:11.521Z,73.67
2017-02-26T14:34:20.416Z,73.96
2017-02-26T14:35:29.314Z,73.77
2017-02-26T14:36:38.236Z,73.67
2017-02-26T14:37:47.142Z,74.06
2017-02-26T14:38:56.439Z,74.83
2017-02-26T14:40:05.388Z,74.06
2017-02-26T14:41:14.271Z,74.44
2017-02-26T14:42:24.930Z,74.29
2017-02-26T14:43:33.836Z,74.68
2017-02-26T14:44:42.732Z,75.16
2017-02-26T14:45:51.635Z,75.54
2017-02-26T14:47:00.521Z,74.68
2017-02-26T14:48:09.563Z,75.06
2017-02-26T14:49:18.477Z,74.58
2017-02-26T14:50:27.372Z,74.68
2017-02-26T14:51:36.269Z,74.68
2017-02-26T14:52:46.625Z,74.87
2017-02-26T14:53:55.731Z,74.29
2017-02-26T14:55:06.012Z,74.68
2017-02-26T14:56:16.617Z,74.1
2017-02-26T14:57:25.506Z,74.19
2017-02-26T14:58:34.388Z,73.65
2017-02-26T14:59:43.286Z,72.72
2017-02-26T15:00:52.187Z,72.52
2017-02-26T15:02:01.104Z,72.33
2017-02-26T15:03:10.008Z,72.27
2017-02-26T15:04:18.946Z,72.08
2017-02-26T15:05:27.845Z,72.56
2017-02-26T15:06:36.737Z,71.59
2017-02-26T15:07:45.647Z,71.98
2017-02-26T15:08:54.546Z,72.27
2017-02-26T15:10:03.442Z,71.88
2017-02-26T15:11:12.335Z,72.17
2017-02-26T15:12:21.224Z,71.88
2017-02-26T15:13:30.113Z,72.17
2017-02-26T15:14:39.006Z,72.08
2017-02-26T15:15:47.902Z,72.36
2017-02-26T15:16:56.799Z,72.85
2017-02-26T15:18:05.694Z,72.36
2017-02-26T15:19:14.585Z,72.66
2017-02-26T15:20:23.532Z,72.75
2017-02-26T15:21:32.463Z,72.17
2017-02-26T15:22:41.384Z,72.17
2017-02-26T15:23:50.288Z,71.98
2017-02-26T15:24:59.586Z,72.08
2017-02-26T15:26:08.486Z,71.88
2017-02-26T15:27:17.400Z,71.5
2017-02-26T15:28:26.284Z,71.59
2017-02-26T15:29:35.167Z,71.98
2017-02-26T15:30:44.048Z,71.11
2017-02-26T15:31:52.928Z,71.4
2017-02-26T15:33:01.820Z,71.01
2017-02-26T15:34:10.706Z,71.11
2017-02-26T15:35:19.635Z,70.92
2017-02-26T15:36:28.526Z,70.92
2017-02-26T15:37:37.427Z,70.82
2017-02-26T15:38:46.572Z,71.2
2017-02-26T15:39:55.476Z,71.11
2017-02-26T15:41:04.386Z,71.4
2017-02-26T15:42:13.300Z,71.98
2017-02-26T15:43:22.195Z,71.5
2017-02-26T15:44:31.090Z,71.59
2017-02-26T15:45:39.984Z,71.98
2017-02-26T15:46:48.888Z,71.5
2017-02-26T15:47:57.791Z,71.11
2017-02-26T15:49:06.748Z,71.14
2017-02-26T15:50:15.668Z,71.3
2017-02-26T15:51:25.675Z,71.78
2017-02-26T15:52:34.600Z,71.98
2017-02-26T15:53:43.539Z,71.01
2017-02-26T15:54:52.588Z,71.3
2017-02-26T15:56:01.713Z,71.24
2017-02-26T15:57:10.801Z,70.92
2017-02-26T15:58:19.756Z,71.11
2017-02-26T15:59:29.252Z,71.34
2017-02-26T16:00:38.281Z,71.34
2017-02-26T16:01:47.647Z,71.34
2017-02-26T16:02:56.901Z,71.14
2017-02-26T16:04:07.101Z,70.95
2017-02-26T16:05:16.653Z,70.95
2017-02-26T16:06:25.599Z,71.04
2017-02-26T16:07:34.763Z,70.86
2017-02-26T16:08:43.763Z,70.95
2017-02-26T16:09:52.964Z,71.04
2017-02-26T16:11:02.078Z,71.04
2017-02-26T16:12:10.984Z,70.95
2017-02-26T16:13:21.245Z,71.24
2017-02-26T16:14:30.570Z,70.76
2017-02-26T16:15:39.480Z,70.86
2017-02-26T16:16:48.375Z,71.34
2017-02-26T16:17:57.251Z,70.95
2017-02-26T16:19:06.137Z,70.47
2017-02-26T16:20:15.070Z,70.47
2017-02-26T16:21:23.962Z,69.79
2017-02-26T16:22:32.855Z,69.69
2017-02-26T16:23:41.760Z,69.69
2017-02-26T16:24:50.665Z,69.89
2017-02-26T16:25:59.561Z,69.59
2017-02-26T16:27:08.453Z,69.11
2017-02-26T16:28:17.369Z,69.5
2017-02-26T16:29:26.264Z,69.89
2017-02-26T16:30:35.184Z,69.31
2017-02-26T16:31:44.130Z,69.5
2017-02-26T16:32:53.047Z,69.5
2017-02-26T16:34:01.949Z,69.4
2017-02-26T16:35:10.837Z,69.01
2017-02-26T16:36:19.724Z,69.31
2017-02-26T16:37:28.634Z,69.5
2017-02-26T16:38:37.521Z,69.4
2017-02-26T16:39:46.422Z,69.69
2017-02-26T16:40:55.308Z,69.4
2017-02-26T16:42:04.205Z,69.5
2017-02-26T16:43:13.094Z,69.5
2017-02-26T16:44:21.983Z,69.5
2017-02-26T16:45:30.863Z,69.5
2017-02-26T16:46:39.770Z,69.5
2017-02-26T16:47:48.668Z,69.69
2017-02-26T16:48:57.554Z,69.98
2017-02-26T16:50:06.439Z,69.98
2017-02-26T16:51:15.342Z,69.98
2017-02-26T16:52:24.269Z,69.79
2017-02-26T16:53:33.176Z,69.98
2017-02-26T16:54:42.062Z,70.47
2017-02-26T16:55:51.355Z,70.37
2017-02-26T16:57:00.258Z,70.18
2017-02-26T16:58:09.151Z,71.04
2017-02-26T16:59:18.842Z,70.08
2017-02-26T17:00:27.764Z,70.47
2017-02-26T17:01:36.660Z,70.66
2017-02-26T17:02:45.581Z,71.34
2017-02-26T17:03:54.479Z,71.04
2017-02-26T17:05:03.397Z,71.14
2017-02-26T17:06:12.297Z,71.34
2017-02-26T17:07:21.200Z,71.04
2017-02-26T17:08:30.105Z,71.04
2017-02-26T17:09:38.987Z,71.92
2017-02-26T17:10:47.872Z,71.04
2017-02-26T17:11:56.754Z,71.53
2017-02-26T17:13:05.683Z,71.82
2017-02-26T17:14:14.569Z,71.72
2017-02-26T17:15:23.470Z,71.72
2017-02-26T17:16:32.360Z,71.72
2017-02-26T17:17:41.248Z,71.53
2017-02-26T17:18:50.138Z,71.72
2017-02-26T17:19:59.016Z,72.11
2017-02-26T17:21:07.937Z,71.72
2017-02-26T17:22:16.841Z,71.62
2017-02-26T17:23:25.751Z,71.34
2017-02-26T17:24:34.692Z,71.56
2017-02-26T17:25:43.590Z,71.18
2017-02-26T17:26:52.479Z,71.56
2017-02-26T17:28:01.366Z,71.66
2017-02-26T17:29:10.264Z,71.66
2017-02-26T17:30:19.145Z,71.47
2017-02-26T17:31:28.035Z,71.47
2017-02-26T17:32:36.921Z,70.98
2017-02-26T17:33:45.836Z,71.37
2017-02-26T17:34:54.734Z,71.18
2017-02-26T17:36:03.644Z,71.37
2017-02-26T17:37:12.546Z,71.08
2017-02-26T17:38:21.425Z,71.18
2017-02-26T17:39:30.368Z,71.66
2017-02-26T17:40:40.410Z,70.89
2017-02-26T17:41:49.301Z,71.18
2017-02-26T17:42:58.228Z,70.98
2017-02-26T17:44:07.116Z,70.98
2017-02-26T17:45:16.003Z,71.47
2017-02-26T17:46:24.926Z,72.15
2017-02-26T17:47:34.104Z,72.15
2017-02-26T17:48:44.152Z,71.95
2017-02-26T17:49:53.043Z,72.24
2017-02-26T17:51:01.922Z,71.76
2017-02-26T17:52:10.811Z,72.05
2017-02-26T17:53:19.730Z,72.05
2017-02-26T17:54:28.633Z,72.28
2017-02-26T17:55:37.534Z,71.99
2017-02-26T17:56:46.422Z,71.89
2017-02-26T17:57:55.307Z,72.86
2017-02-26T17:59:04.596Z,72.67
2017-02-26T18:00:13.560Z,72.67
2017-02-26T18:01:22.447Z,72.67
2017-02-26T18:02:31.355Z,72.57
2017-02-26T18:03:40.251Z,72.47
2017-02-26T18:04:49.143Z,72.96
2017-02-26T18:05:58.028Z,72.57
2017-02-26T18:07:06.908Z,72.67
2017-02-26T18:08:15.824Z,72.28
2017-02-26T18:09:24.727Z,72.28
2017-02-26T18:10:33.610Z,73.64
2017-02-26T18:11:42.524Z,72.67
2017-02-26T18:12:51.441Z,73.05
2017-02-26T18:14:00.368Z,72.57
2017-02-26T18:15:09.261Z,72.18
2017-02-26T18:16:18.562Z,71.93
2017-02-26T18:17:27.464Z,71.99
2017-02-26T18:18:36.348Z,72.02
2017-02-26T18:19:45.232Z,72.22
2017-02-26T18:20:54.132Z,72.12
2017-02-26T18:22:03.036Z,72.02
2017-02-26T18:23:12.020Z,71.64
2017-02-26T18:24:20.933Z,72.12
2017-02-26T18:25:29.829Z,71.64
2017-02-26T18:26:38.725Z,71.83
2017-02-26T18:27:47.632Z,71.73
2017-02-26T18:28:56.529Z,71.83
2017-02-26T18:30:05.424Z,71.64
2017-02-26T18:31:14.329Z,71.34
2017-02-26T18:32:23.250Z,71.54
2017-02-26T18:33:32.148Z,71.93
2017-02-26T18:34:41.048Z,71.54
2017-02-26T18:35:49.963Z,71.44
2017-02-26T18:36:58.845Z,71.25
2017-02-26T18:38:07.742Z,71.15
2017-02-26T18:39:16.660Z,71.89
2017-02-26T18:40:25.551Z,71.99
2017-02-26T18:41:34.438Z,71.93
2017-02-26T18:42:43.737Z,72.18
2017-02-26T18:43:52.618Z,71.34
2017-02-26T18:45:01.909Z,71.8
2017-02-26T18:46:10.808Z,72.09
2017-02-26T18:47:20.138Z,72.09
2017-02-26T18:48:29.026Z,71.73
2017-02-26T18:49:37.922Z,71.15
2017-02-26T18:50:46.802Z,71.44
2017-02-26T18:51:55.700Z,71.15
2017-02-26T18:53:04.600Z,70.92
2017-02-26T18:54:13.508Z,70.86
2017-02-26T18:55:22.412Z,71.15
2017-02-26T18:56:31.298Z,71.02
2017-02-26T18:57:40.194Z,70.54
2017-02-26T18:58:49.134Z,70.37
2017-02-26T18:59:58.040Z,70.25
2017-02-26T19:01:06.934Z,70.63
2017-02-26T19:02:15.848Z,70.25
2017-02-26T19:03:24.743Z,70.54
2017-02-26T19:04:33.636Z,70.44
2017-02-26T19:05:42.526Z,70.47
2017-02-26T19:06:51.418Z,70.37
2017-02-26T19:08:00.308Z,70.67
2017-02-26T19:09:09.246Z,70.44
2017-02-26T19:10:18.158Z,70.67
2017-02-26T19:11:27.046Z,70.47
2017-02-26T19:12:35.963Z,70.47
2017-02-26T19:13:44.862Z,70.25
2017-02-26T19:14:53.768Z,70.47
2017-02-26T19:16:02.660Z,70.28
2017-02-26T19:17:11.561Z,70.92
2017-02-26T19:18:20.468Z,70.96
2017-02-26T19:19:29.390Z,70.34
2017-02-26T19:20:38.304Z,71.34
2017-02-26T19:21:47.210Z,71.22
2017-02-26T19:22:56.105Z,71.12
2017-02-26T19:24:05.033Z,71.54
2017-02-26T19:25:13.933Z,71.5
2017-02-26T19:26:23.223Z,71.15
2017-02-26T19:27:34.070Z,71.34
2017-02-26T19:28:46.163Z,71.02
2017-02-26T19:29:55.802Z,71.7
2017-02-26T19:31:05.066Z,71.02
2017-02-26T19:32:14.455Z,71.25
2017-02-26T19:33:24.189Z,71.83
2017-02-26T19:34:33.097Z,71.54
2017-02-26T19:35:42.068Z,71.83
2017-02-26T19:36:51.009Z,72.12
2017-02-26T19:38:00.091Z,71.64
2017-02-26T19:39:09.124Z,71.7
2017-02-26T19:40:18.059Z,71.6
2017-02-26T19:41:27.190Z,71.93
2017-02-26T19:42:36.082Z,71.8
2017-02-26T19:43:44.986Z,72.02
2017-02-26T19:44:53.908Z,71.6
2017-02-26T19:46:03.095Z,71.73
2017-02-26T19:47:12.082Z,71.89
2017-02-26T19:48:20.986Z,72.12
2017-02-26T19:49:29.890Z,71.6
2017-02-26T19:50:38.849Z,71.6
2017-02-26T19:51:47.877Z,72.18
2017-02-26T19:52:56.963Z,71.54
2017-02-26T19:54:05.978Z,71.93
2017-02-26T19:55:14.938Z,72.02
2017-02-26T19:56:24.311Z,71.89
2017-02-26T19:57:33.747Z,71.6
2017-02-26T19:58:42.732Z,71.89
2017-02-26T19:59:51.706Z,72.02
2017-02-26T20:01:00.618Z,72.12
2017-02-26T20:02:09.519Z,71.83
2017-02-26T20:03:18.415Z,71.83
2017-02-26T20:04:27.330Z,71.83
2017-02-26T20:05:36.233Z,71.83
2017-02-26T20:06:45.557Z,71.93
2017-02-26T20:07:54.452Z,71.83
2017-02-26T20:09:03.383Z,71.93
2017-02-26T20:10:12.269Z,72.02
2017-02-26T20:11:21.155Z,71.93
2017-02-26T20:12:30.061Z,72.12
2017-02-26T20:13:38.982Z,71.73
2017-02-26T20:14:47.874Z,72.02
2017-02-26T20:15:56.774Z,71.44
2017-02-26T20:17:05.693Z,71.83
2017-02-26T20:18:14.590Z,71.73
2017-02-26T20:19:23.514Z,71.64
2017-02-26T20:20:32.412Z,71.93
2017-02-26T20:21:41.308Z,72.31
2017-02-26T20:22:50.198Z,72.02
2017-02-26T20:23:59.125Z,72.22
2017-02-26T20:25:08.032Z,71.93
2017-02-26T20:26:16.925Z,71.64
2017-02-26T20:27:25.857Z,71.83
2017-02-26T20:28:34.979Z,71.83
2017-02-26T20:29:43.927Z,71.44
2017-02-26T20:30:53.015Z,71.83
2017-02-26T20:32:02.029Z,72.22
2017-02-26T20:33:11.108Z,71.64
2017-02-26T20:34:20.027Z,71.44
2017-02-26T20:35:29.039Z,71.93
2017-02-26T20:36:39.068Z,71.73
2017-02-26T20:37:48.359Z,71.93
2017-02-26T20:38:58.960Z,71.44
2017-02-26T20:40:12.824Z,71.54
2017-02-26T20:41:23.027Z,71.96
2017-02-26T20:42:31.916Z,71.83
2017-02-26T20:43:41.462Z,71.93
2017-02-26T20:44:50.782Z,71.58
2017-02-26T20:45:59.876Z,71.48
2017-02-26T20:47:08.856Z,72.16
2017-02-26T20:48:17.740Z,72.06
2017-02-26T20:49:27.000Z,71.38
2017-02-26T20:50:36.048Z,71.96
2017-02-26T20:51:44.934Z,71.86
2017-02-26T20:52:53.865Z,72.31
2017-02-26T20:54:02.779Z,71.58
2017-02-26T20:55:12.434Z,71.67
2017-02-26T20:56:21.583Z,72.06
2017-02-26T20:57:30.495Z,71.58
2017-02-26T20:58:40.227Z,71.28
2017-02-26T20:59:49.336Z,70.99
2017-02-26T21:00:58.229Z,71.09
2017-02-26T21:02:07.118Z,72.06
2017-02-26T21:03:16.014Z,72.06
2017-02-26T21:04:24.900Z,71.38
2017-02-26T21:05:33.891Z,71.19
2017-02-26T21:06:43.242Z,71.58
2017-02-26T21:07:52.506Z,70.99
2017-02-26T21:09:01.465Z,71.86
2017-02-26T21:10:10.406Z,71.58
2017-02-26T21:11:19.325Z,72.35
2017-02-26T21:12:28.358Z,72.25
2017-02-26T21:13:37.537Z,71.67
2017-02-26T21:14:46.493Z,71.09
2017-02-26T21:15:55.381Z,71.48
2017-02-26T21:17:04.284Z,72.06
2017-02-26T21:18:13.726Z,71.77
2017-02-26T21:19:22.974Z,72.25
2017-02-26T21:20:32.341Z,71.96
2017-02-26T21:21:41.267Z,71.19
2017-02-26T21:22:50.462Z,71.38
2017-02-26T21:23:59.350Z,71.58
2017-02-26T21:25:08.414Z,71.32
2017-02-26T21:26:17.319Z,71.19
2017-02-26T21:27:26.639Z,71.03
2017-02-26T21:28:36.455Z,70.99
2017-02-26T21:29:45.379Z,71.42
2017-02-26T21:30:54.302Z,70.99
2017-02-26T21:32:03.304Z,70.93
2017-02-26T21:33:12.251Z,70.93
2017-02-26T21:34:22.503Z,70.83
2017-02-26T21:35:31.457Z,71.12
2017-02-26T21:36:40.913Z,71.03
2017-02-26T21:37:49.803Z,71.19
2017-02-26T21:38:58.764Z,71.03
2017-02-26T21:40:07.682Z,71.28
2017-02-26T21:41:16.591Z,71.12
2017-02-26T21:42:25.481Z,70.8
2017-02-26T21:43:35.025Z,71.09
2017-02-26T21:44:45.556Z,71.09
2017-02-26T21:45:55.037Z,70.73
2017-02-26T21:47:03.932Z,71.09
2017-02-26T21:48:12.835Z,70.7
2017-02-26T21:49:21.822Z,71.03
2017-02-26T21:50:30.749Z,70.45
2017-02-26T21:51:39.659Z,70.35
2017-02-26T21:52:48.559Z,70.54
2017-02-26T21:53:57.497Z,70.45
2017-02-26T21:55:06.471Z,70.83
2017-02-26T21:56:15.362Z,70.64
2017-02-26T21:57:24.255Z,70.73
2017-02-26T21:58:33.156Z,70.54
2017-02-26T21:59:42.045Z,70.73
2017-02-26T22:00:50.943Z,70.64
2017-02-26T22:01:59.985Z,70.51
2017-02-26T22:03:09.617Z,70.73
2017-02-26T22:04:18.960Z,70.83
2017-02-26T22:05:28.045Z,70.64
2017-02-26T22:06:37.201Z,70.54
2017-02-26T22:07:46.089Z,70.64
2017-02-26T22:08:54.975Z,70.35
2017-02-26T22:10:04.290Z,70.73
2017-02-26T22:11:13.220Z,70.93
2017-02-26T22:12:22.163Z,70.15
2017-02-26T22:13:31.253Z,70.73
2017-02-26T22:14:40.297Z,71.03
2017-02-26T22:15:49.203Z,70.35
2017-02-26T22:16:58.504Z,71.03
2017-02-26T22:18:07.421Z,70.64
2017-02-26T22:19:16.310Z,71.12
2017-02-26T22:20:25.214Z,71.12
2017-02-26T22:21:34.105Z,70.83
2017-02-26T22:22:43.017Z,70.93
2017-02-26T22:23:52.297Z,70.15
2017-02-26T22:25:01.275Z,71.12
2017-02-26T22:26:10.664Z,70.73
2017-02-26T22:27:21.680Z,70.54
2017-02-26T22:28:31.417Z,70.45
2017-02-26T22:29:41.302Z,70.54
2017-02-26T22:30:50.274Z,70.73
2017-02-26T22:32:00.130Z,70.73
2017-02-26T22:33:09.903Z,70.64
2017-02-26T22:34:19.703Z,70.73
2017-02-26T22:35:28.605Z,70.64
2017-02-26T22:36:37.746Z,70.25
2017-02-26T22:37:46.738Z,70.64
2017-02-26T22:38:55.658Z,71.03
2017-02-26T22:40:04.572Z,70.25
2017-02-26T22:41:13.583Z,70.64
2017-02-26T22:42:22.480Z,71.12
2017-02-26T22:43:31.361Z,71.03
2017-02-26T22:44:40.270Z,71.51
2017-02-26T22:45:49.176Z,70.99
2017-02-26T22:46:58.089Z,70.93
2017-02-26T22:48:07.003Z,71.19
2017-02-26T22:49:15.893Z,71.03
2017-02-26T22:50:24.776Z,71.12
2017-02-26T22:51:33.677Z,71.32
2017-02-26T22:52:42.604Z,71.38
2017-02-26T22:53:51.495Z,71.19
2017-02-26T22:55:00.387Z,71.38
2017-02-26T22:56:09.285Z,71.19
2017-02-26T22:57:18.174Z,71.58
2017-02-26T22:58:27.076Z,63.62
2017-02-26T22:59:35.977Z,61.85
2017-02-26T23:00:44.869Z,60.78
2017-02-26T23:01:53.757Z,59.78
2017-02-26T23:03:02.644Z,57.43
2017-02-26T23:04:11.526Z,56.65
2017-02-26T23:05:20.438Z,57.04
2017-02-26T23:06:29.327Z,55.68
2017-02-26T23:07:38.247Z,56.36
2017-02-26T23:08:47.140Z,55.66
2017-02-26T23:09:56.048Z,56.82
2017-02-26T23:11:04.977Z,56.21
2017-02-26T23:12:13.877Z,54.95
2017-02-26T23:13:23.175Z,54.57
2017-02-26T23:14:32.071Z,54.75
2017-02-26T23:15:40.961Z,55.43
2017-02-26T23:16:49.856Z,55.79
2017-02-26T23:17:58.738Z,54.83
2017-02-26T23:19:07.641Z,55.31
2017-02-26T23:20:16.526Z,54.32
2017-02-26T23:21:25.407Z,53.74
2017-02-26T23:22:34.308Z,53.74
2017-02-26T23:23:43.197Z,54.22
2017-02-26T23:24:52.101Z,54.13
2017-02-26T23:26:00.984Z,54.22
2017-02-26T23:27:09.902Z,54
2017-02-26T23:28:18.777Z,54.29
2017-02-26T23:29:27.675Z,54
2017-02-26T23:30:36.577Z,53.91
2017-02-26T23:31:45.482Z,54
2017-02-26T23:32:54.381Z,53.81
2017-02-26T23:34:03.288Z,53.69
2017-02-26T23:35:12.200Z,53.2
2017-02-26T23:36:21.083Z,53.3
2017-02-26T23:37:29.986Z,53.3
2017-02-26T23:38:38.875Z,53.69
2017-02-26T23:39:47.775Z,52.91
2017-02-26T23:40:56.690Z,53.01
2017-02-26T23:42:05.578Z,53.2
2017-02-26T23:43:14.489Z,52.59
2017-02-26T23:44:23.396Z,53.01
2017-02-26T23:45:32.285Z,53.01
2017-02-26T23:46:41.195Z,52.59
2017-02-26T23:47:50.079Z,52.69
2017-02-26T23:48:58.968Z,52.98
2017-02-26T23:50:07.859Z,52.31
2017-02-26T23:51:16.753Z,52.69
2017-02-26T23:52:25.665Z,52.59
2017-02-26T23:53:34.566Z,52.79
2017-02-26T23:54:43.629Z,53.17
2017-02-26T23:55:52.520Z,52.69
2017-02-26T23:57:01.412Z,52.89
2017-02-26T23:58:10.350Z,52.4
2017-02-26T23:59:19.869Z,52.57
